sensor_id;sensor_type;location;lat;lon;timestamp;P1;durP1;ratioP1;P2;durP2;ratioP2
15082;SDS011;7640;53.116;6.878;2023-04-01T00:01:19;13.23;;;9.70;;
15082;SDS011;7640;53.116;6.878;2023-04-01T00:03:48;14.73;;;9.80;;
15082;SDS011;7640;53.116;6.878;2023-04-01T00:06:17;11.67;;;9.40;;
15082;SDS011;7640;53.116;6.878;2023-04-01T00:08:46;13.13;;;9.67;;
15082;SDS011;7640;53.116;6.878;2023-04-01T00:11:18;14.67;;;9.40;;
15082;SDS011;7640;53.116;6.878;2023-04-01T00:13:47;14.00;;;9.80;;
15082;SDS011;7640;53.116;6.878;2023-04-01T00:16:18;14.33;;;10.20;;
15082;SDS011;7640;53.116;6.878;2023-04-01T00:18:48;13.50;;;9.40;;
15082;SDS011;7640;53.116;6.878;2023-04-01T00:21:18;15.03;;;10.43;;
15082;SDS011;7640;53.116;6.878;2023-04-01T00:23:48;14.40;;;9.63;;
15082;SDS011;7640;53.116;6.878;2023-04-01T00:26:28;13.27;;;9.93;;
15082;SDS011;7640;53.116;6.878;2023-04-01T00:28:59;14.10;;;9.40;;
15082;SDS011;7640;53.116;6.878;2023-04-01T00:31:28;14.07;;;9.67;;
15082;SDS011;7640;53.116;6.878;2023-04-01T00:33:56;13.50;;;9.30;;
15082;SDS011;7640;53.116;6.878;2023-04-01T00:36:25;14.70;;;10.03;;
15082;SDS011;7640;53.116;6.878;2023-04-01T00:38:54;12.60;;;9.30;;
15082;SDS011;7640;53.116;6.878;2023-04-01T00:41:30;14.77;;;9.87;;
15082;SDS011;7640;53.116;6.878;2023-04-01T00:44:19;13.33;;;9.73;;
15082;SDS011;7640;53.116;6.878;2023-04-01T00:46:50;14.17;;;10.13;;
15082;SDS011;7640;53.116;6.878;2023-04-01T00:49:21;18.97;;;10.30;;
15082;SDS011;7640;53.116;6.878;2023-04-01T00:51:54;13.73;;;9.33;;
15082;SDS011;7640;53.116;6.878;2023-04-01T00:54:27;14.17;;;10.07;;
15082;SDS011;7640;53.116;6.878;2023-04-01T00:56:58;14.17;;;9.77;;
15082;SDS011;7640;53.116;6.878;2023-04-01T00:59:31;13.40;;;9.67;;
15082;SDS011;7640;53.116;6.878;2023-04-01T01:02:04;15.23;;;9.73;;
15082;SDS011;7640;53.116;6.878;2023-04-01T01:04:35;14.53;;;9.80;;
15082;SDS011;7640;53.116;6.878;2023-04-01T01:07:07;13.03;;;9.40;;
15082;SDS011;7640;53.116;6.878;2023-04-01T01:09:49;16.17;;;9.87;;
15082;SDS011;7640;53.116;6.878;2023-04-01T01:12:34;14.80;;;9.97;;
15082;SDS011;7640;53.116;6.878;2023-04-01T01:15:11;14.03;;;8.93;;
15082;SDS011;7640;53.116;6.878;2023-04-01T01:17:49;14.37;;;9.97;;
15082;SDS011;7640;53.116;6.878;2023-04-01T01:26:59;16.60;;;9.57;;
15082;SDS011;7640;53.116;6.878;2023-04-01T01:35:36;15.97;;;9.80;;
15082;SDS011;7640;53.116;6.878;2023-04-01T01:38:09;15.17;;;10.10;;
15082;SDS011;7640;53.116;6.878;2023-04-01T01:40:43;15.40;;;11.03;;
15082;SDS011;7640;53.116;6.878;2023-04-01T01:43:19;17.40;;;11.83;;
15082;SDS011;7640;53.116;6.878;2023-04-01T01:45:52;17.50;;;11.73;;
15082;SDS011;7640;53.116;6.878;2023-04-01T01:48:25;18.47;;;12.40;;
15082;SDS011;7640;53.116;6.878;2023-04-01T01:50:56;20.87;;;13.47;;
15082;SDS011;7640;53.116;6.878;2023-04-01T01:53:26;21.67;;;14.23;;
15082;SDS011;7640;53.116;6.878;2023-04-01T01:55:55;19.93;;;13.97;;
15082;SDS011;7640;53.116;6.878;2023-04-01T01:58:25;20.17;;;13.53;;
15082;SDS011;7640;53.116;6.878;2023-04-01T02:00:58;17.77;;;12.57;;
15082;SDS011;7640;53.116;6.878;2023-04-01T02:03:35;19.37;;;13.20;;
15082;SDS011;7640;53.116;6.878;2023-04-01T02:06:11;19.53;;;13.40;;
15082;SDS011;7640;53.116;6.878;2023-04-01T02:08:43;17.37;;;12.37;;
15082;SDS011;7640;53.116;6.878;2023-04-01T02:11:18;22.67;;;13.77;;
15082;SDS011;7640;53.116;6.878;2023-04-01T02:13:52;18.40;;;12.67;;
15082;SDS011;7640;53.116;6.878;2023-04-01T02:16:28;19.80;;;12.80;;
15082;SDS011;7640;53.116;6.878;2023-04-01T02:19:11;21.10;;;13.93;;
15082;SDS011;7640;53.116;6.878;2023-04-01T02:21:43;20.30;;;12.97;;
15082;SDS011;7640;53.116;6.878;2023-04-01T02:24:12;20.70;;;12.90;;
15082;SDS011;7640;53.116;6.878;2023-04-01T02:26:42;16.73;;;13.23;;
15082;SDS011;7640;53.116;6.878;2023-04-01T02:29:12;20.53;;;13.67;;
15082;SDS011;7640;53.116;6.878;2023-04-01T02:31:41;21.47;;;14.37;;
15082;SDS011;7640;53.116;6.878;2023-04-01T02:34:10;20.47;;;14.23;;
15082;SDS011;7640;53.116;6.878;2023-04-01T02:36:39;19.50;;;13.53;;
15082;SDS011;7640;53.116;6.878;2023-04-01T02:39:10;22.63;;;14.40;;
15082;SDS011;7640;53.116;6.878;2023-04-01T02:41:39;19.93;;;13.47;;
15082;SDS011;7640;53.116;6.878;2023-04-01T02:44:09;24.57;;;14.37;;
15082;SDS011;7640;53.116;6.878;2023-04-01T02:46:41;21.57;;;13.43;;
15082;SDS011;7640;53.116;6.878;2023-04-01T02:49:09;19.70;;;13.23;;
15082;SDS011;7640;53.116;6.878;2023-04-01T02:51:38;22.93;;;12.70;;
15082;SDS011;7640;53.116;6.878;2023-04-01T02:54:06;21.00;;;12.23;;
15082;SDS011;7640;53.116;6.878;2023-04-01T02:56:36;18.27;;;11.80;;
15082;SDS011;7640;53.116;6.878;2023-04-01T02:59:04;17.53;;;11.67;;
15082;SDS011;7640;53.116;6.878;2023-04-01T03:01:34;19.50;;;12.50;;
15082;SDS011;7640;53.116;6.878;2023-04-01T03:04:03;18.03;;;12.50;;
15082;SDS011;7640;53.116;6.878;2023-04-01T03:06:32;19.80;;;11.60;;
15082;SDS011;7640;53.116;6.878;2023-04-01T03:09:00;20.17;;;12.70;;
15082;SDS011;7640;53.116;6.878;2023-04-01T03:11:30;18.03;;;12.10;;
15082;SDS011;7640;53.116;6.878;2023-04-01T03:14:01;17.17;;;11.63;;
15082;SDS011;7640;53.116;6.878;2023-04-01T03:16:31;22.70;;;13.63;;
15082;SDS011;7640;53.116;6.878;2023-04-01T03:18:59;20.53;;;12.67;;
15082;SDS011;7640;53.116;6.878;2023-04-01T03:21:28;19.43;;;12.27;;
15082;SDS011;7640;53.116;6.878;2023-04-01T03:23:57;23.30;;;12.90;;
15082;SDS011;7640;53.116;6.878;2023-04-01T03:26:25;22.27;;;13.37;;
15082;SDS011;7640;53.116;6.878;2023-04-01T03:28:54;20.73;;;13.37;;
15082;SDS011;7640;53.116;6.878;2023-04-01T03:31:25;21.43;;;13.40;;
15082;SDS011;7640;53.116;6.878;2023-04-01T03:33:54;21.83;;;13.57;;
15082;SDS011;7640;53.116;6.878;2023-04-01T03:36:23;21.50;;;12.73;;
15082;SDS011;7640;53.116;6.878;2023-04-01T03:38:51;20.60;;;12.57;;
15082;SDS011;7640;53.116;6.878;2023-04-01T03:41:20;19.70;;;13.33;;
15082;SDS011;7640;53.116;6.878;2023-04-01T03:43:49;22.33;;;13.03;;
15082;SDS011;7640;53.116;6.878;2023-04-01T03:46:18;22.67;;;12.67;;
15082;SDS011;7640;53.116;6.878;2023-04-01T03:48:48;23.10;;;14.13;;
15082;SDS011;7640;53.116;6.878;2023-04-01T03:51:17;25.80;;;15.30;;
15082;SDS011;7640;53.116;6.878;2023-04-01T03:53:46;26.03;;;14.70;;
15082;SDS011;7640;53.116;6.878;2023-04-01T03:56:14;26.40;;;15.70;;
15082;SDS011;7640;53.116;6.878;2023-04-01T03:58:42;28.97;;;15.97;;
15082;SDS011;7640;53.116;6.878;2023-04-01T04:01:14;23.80;;;14.70;;
15082;SDS011;7640;53.116;6.878;2023-04-01T04:03:45;25.50;;;15.37;;
15082;SDS011;7640;53.116;6.878;2023-04-01T04:06:17;25.40;;;15.30;;
15082;SDS011;7640;53.116;6.878;2023-04-01T04:08:46;23.97;;;14.37;;
15082;SDS011;7640;53.116;6.878;2023-04-01T04:11:15;25.80;;;14.27;;
15082;SDS011;7640;53.116;6.878;2023-04-01T04:13:45;25.37;;;14.03;;
15082;SDS011;7640;53.116;6.878;2023-04-01T04:16:15;23.83;;;14.03;;
15082;SDS011;7640;53.116;6.878;2023-04-01T04:18:49;21.70;;;13.67;;
15082;SDS011;7640;53.116;6.878;2023-04-01T04:21:19;24.70;;;14.40;;
15082;SDS011;7640;53.116;6.878;2023-04-01T04:23:49;24.80;;;14.00;;
15082;SDS011;7640;53.116;6.878;2023-04-01T04:26:18;26.93;;;14.23;;
15082;SDS011;7640;53.116;6.878;2023-04-01T04:28:46;26.90;;;14.33;;
15082;SDS011;7640;53.116;6.878;2023-04-01T04:31:19;25.73;;;14.27;;
15082;SDS011;7640;53.116;6.878;2023-04-01T04:34:03;24.33;;;14.40;;
15082;SDS011;7640;53.116;6.878;2023-04-01T04:36:33;25.17;;;14.90;;
15082;SDS011;7640;53.116;6.878;2023-04-01T04:39:02;30.03;;;15.23;;
15082;SDS011;7640;53.116;6.878;2023-04-01T04:41:30;22.13;;;13.57;;
15082;SDS011;7640;53.116;6.878;2023-04-01T04:44:02;24.40;;;14.83;;
15082;SDS011;7640;53.116;6.878;2023-04-01T04:46:38;27.23;;;14.93;;
15082;SDS011;7640;53.116;6.878;2023-04-01T04:49:06;25.60;;;15.27;;
15082;SDS011;7640;53.116;6.878;2023-04-01T04:51:36;27.47;;;15.10;;
15082;SDS011;7640;53.116;6.878;2023-04-01T04:54:05;27.40;;;15.30;;
15082;SDS011;7640;53.116;6.878;2023-04-01T04:56:34;26.20;;;15.07;;
15082;SDS011;7640;53.116;6.878;2023-04-01T04:59:03;26.73;;;15.97;;
15082;SDS011;7640;53.116;6.878;2023-04-01T05:01:32;28.73;;;15.83;;
15082;SDS011;7640;53.116;6.878;2023-04-01T05:04:01;25.63;;;15.17;;
15082;SDS011;7640;53.116;6.878;2023-04-01T05:06:30;28.20;;;16.30;;
15082;SDS011;7640;53.116;6.878;2023-04-01T05:09:00;26.43;;;15.23;;
15082;SDS011;7640;53.116;6.878;2023-04-01T05:11:28;27.90;;;15.17;;
15082;SDS011;7640;53.116;6.878;2023-04-01T05:13:57;26.93;;;14.73;;
15082;SDS011;7640;53.116;6.878;2023-04-01T05:16:25;26.77;;;15.03;;
15082;SDS011;7640;53.116;6.878;2023-04-01T05:18:54;29.63;;;15.83;;
15082;SDS011;7640;53.116;6.878;2023-04-01T05:21:23;30.10;;;16.20;;
15082;SDS011;7640;53.116;6.878;2023-04-01T05:23:53;27.43;;;16.57;;
15082;SDS011;7640;53.116;6.878;2023-04-01T05:26:23;28.60;;;16.37;;
15082;SDS011;7640;53.116;6.878;2023-04-01T05:28:52;28.00;;;15.77;;
15082;SDS011;7640;53.116;6.878;2023-04-01T05:31:21;28.73;;;16.00;;
15082;SDS011;7640;53.116;6.878;2023-04-01T05:33:52;30.67;;;17.43;;
15082;SDS011;7640;53.116;6.878;2023-04-01T05:36:22;31.83;;;16.40;;
15082;SDS011;7640;53.116;6.878;2023-04-01T05:38:54;29.97;;;17.57;;
15082;SDS011;7640;53.116;6.878;2023-04-01T05:41:25;30.93;;;16.23;;
15082;SDS011;7640;53.116;6.878;2023-04-01T05:43:54;32.77;;;18.10;;
15082;SDS011;7640;53.116;6.878;2023-04-01T05:46:23;31.80;;;17.27;;
15082;SDS011;7640;53.116;6.878;2023-04-01T05:48:52;34.03;;;17.73;;
15082;SDS011;7640;53.116;6.878;2023-04-01T05:51:21;34.53;;;18.27;;
15082;SDS011;7640;53.116;6.878;2023-04-01T05:53:50;35.33;;;17.77;;
15082;SDS011;7640;53.116;6.878;2023-04-01T05:56:19;31.37;;;17.53;;
15082;SDS011;7640;53.116;6.878;2023-04-01T05:58:51;32.33;;;18.27;;
15082;SDS011;7640;53.116;6.878;2023-04-01T06:01:21;32.93;;;17.73;;
15082;SDS011;7640;53.116;6.878;2023-04-01T06:03:50;34.83;;;18.73;;
15082;SDS011;7640;53.116;6.878;2023-04-01T06:06:20;32.77;;;17.67;;
15082;SDS011;7640;53.116;6.878;2023-04-01T06:08:55;35.20;;;18.70;;
15082;SDS011;7640;53.116;6.878;2023-04-01T06:11:28;33.73;;;19.63;;
15082;SDS011;7640;53.116;6.878;2023-04-01T06:14:12;33.17;;;19.53;;
15082;SDS011;7640;53.116;6.878;2023-04-01T06:16:59;32.20;;;17.70;;
15082;SDS011;7640;53.116;6.878;2023-04-01T06:19:43;36.10;;;19.27;;
15082;SDS011;7640;53.116;6.878;2023-04-01T06:22:22;35.63;;;19.00;;
15082;SDS011;7640;53.116;6.878;2023-04-01T06:25:21;33.80;;;18.77;;
15082;SDS011;7640;53.116;6.878;2023-04-01T06:28:06;35.67;;;19.40;;
15082;SDS011;7640;53.116;6.878;2023-04-01T06:31:09;32.77;;;18.60;;
15082;SDS011;7640;53.116;6.878;2023-04-01T06:33:52;36.50;;;20.07;;
15082;SDS011;7640;53.116;6.878;2023-04-01T06:36:43;37.30;;;19.80;;
15082;SDS011;7640;53.116;6.878;2023-04-01T06:39:44;32.90;;;19.00;;
15082;SDS011;7640;53.116;6.878;2023-04-01T06:42:43;32.87;;;17.83;;
15082;SDS011;7640;53.116;6.878;2023-04-01T06:45:29;32.87;;;18.13;;
15082;SDS011;7640;53.116;6.878;2023-04-01T06:48:11;31.33;;;18.43;;
15082;SDS011;7640;53.116;6.878;2023-04-01T06:51:01;32.47;;;17.97;;
15082;SDS011;7640;53.116;6.878;2023-04-01T06:53:39;33.93;;;17.53;;
15082;SDS011;7640;53.116;6.878;2023-04-01T06:56:19;32.70;;;18.43;;
15082;SDS011;7640;53.116;6.878;2023-04-01T06:58:53;34.90;;;17.93;;
15082;SDS011;7640;53.116;6.878;2023-04-01T07:01:37;32.73;;;17.10;;
15082;SDS011;7640;53.116;6.878;2023-04-01T07:04:11;33.33;;;17.73;;
15082;SDS011;7640;53.116;6.878;2023-04-01T07:07:12;36.23;;;18.07;;
15082;SDS011;7640;53.116;6.878;2023-04-01T07:09:49;31.40;;;17.30;;
15082;SDS011;7640;53.116;6.878;2023-04-01T07:12:28;31.70;;;17.33;;
15082;SDS011;7640;53.116;6.878;2023-04-01T07:15:09;35.00;;;18.50;;
15082;SDS011;7640;53.116;6.878;2023-04-01T07:17:47;34.30;;;17.53;;
15082;SDS011;7640;53.116;6.878;2023-04-01T07:20:27;34.17;;;17.83;;
15082;SDS011;7640;53.116;6.878;2023-04-01T07:22:59;30.63;;;17.93;;
15082;SDS011;7640;53.116;6.878;2023-04-01T07:25:31;34.00;;;17.80;;
15082;SDS011;7640;53.116;6.878;2023-04-01T07:28:04;34.57;;;17.33;;
15082;SDS011;7640;53.116;6.878;2023-04-01T07:30:42;30.40;;;17.27;;
15082;SDS011;7640;53.116;6.878;2023-04-01T07:33:24;28.60;;;16.27;;
15082;SDS011;7640;53.116;6.878;2023-04-01T07:36:07;31.10;;;17.90;;
15082;SDS011;7640;53.116;6.878;2023-04-01T07:38:45;29.93;;;16.70;;
15082;SDS011;7640;53.116;6.878;2023-04-01T07:41:30;30.53;;;16.70;;
15082;SDS011;7640;53.116;6.878;2023-04-01T07:44:13;26.63;;;16.23;;
15082;SDS011;7640;53.116;6.878;2023-04-01T07:46:55;27.00;;;15.67;;
15082;SDS011;7640;53.116;6.878;2023-04-01T07:49:42;25.97;;;15.77;;
15082;SDS011;7640;53.116;6.878;2023-04-01T07:52:26;26.00;;;15.67;;
15082;SDS011;7640;53.116;6.878;2023-04-01T07:55:05;29.13;;;16.83;;
15082;SDS011;7640;53.116;6.878;2023-04-01T07:57:43;24.27;;;15.30;;
15082;SDS011;7640;53.116;6.878;2023-04-01T08:00:20;26.90;;;15.77;;
15082;SDS011;7640;53.116;6.878;2023-04-01T08:02:58;23.53;;;14.10;;
15082;SDS011;7640;53.116;6.878;2023-04-01T08:06:03;24.03;;;15.00;;
15082;SDS011;7640;53.116;6.878;2023-04-01T08:08:46;25.73;;;15.73;;
15082;SDS011;7640;53.116;6.878;2023-04-01T08:11:32;24.90;;;15.53;;
15082;SDS011;7640;53.116;6.878;2023-04-01T08:14:13;23.50;;;15.13;;
15082;SDS011;7640;53.116;6.878;2023-04-01T08:16:54;23.23;;;13.80;;
15082;SDS011;7640;53.116;6.878;2023-04-01T08:19:31;21.47;;;14.00;;
15082;SDS011;7640;53.116;6.878;2023-04-01T08:22:19;22.50;;;14.07;;
15082;SDS011;7640;53.116;6.878;2023-04-01T08:24:56;18.70;;;12.93;;
15082;SDS011;7640;53.116;6.878;2023-04-01T08:27:37;19.67;;;12.77;;
15082;SDS011;7640;53.116;6.878;2023-04-01T08:30:18;19.70;;;12.63;;
15082;SDS011;7640;53.116;6.878;2023-04-01T08:32:51;18.03;;;12.37;;
15082;SDS011;7640;53.116;6.878;2023-04-01T08:35:26;19.37;;;12.57;;
15082;SDS011;7640;53.116;6.878;2023-04-01T08:38:02;19.10;;;12.43;;
15082;SDS011;7640;53.116;6.878;2023-04-01T08:40:50;19.47;;;13.00;;
15082;SDS011;7640;53.116;6.878;2023-04-01T08:43:42;15.83;;;11.20;;
15082;SDS011;7640;53.116;6.878;2023-04-01T08:46:35;17.20;;;11.93;;
15082;SDS011;7640;53.116;6.878;2023-04-01T08:52:35;18.60;;;12.20;;
15082;SDS011;7640;53.116;6.878;2023-04-01T08:55:14;21.83;;;13.03;;
15082;SDS011;7640;53.116;6.878;2023-04-01T08:58:16;19.50;;;12.57;;
15082;SDS011;7640;53.116;6.878;2023-04-01T09:01:22;19.40;;;12.27;;
15082;SDS011;7640;53.116;6.878;2023-04-01T09:04:13;18.83;;;12.10;;
15082;SDS011;7640;53.116;6.878;2023-04-01T09:07:12;17.60;;;12.07;;
15082;SDS011;7640;53.116;6.878;2023-04-01T09:13:05;15.33;;;10.63;;
15082;SDS011;7640;53.116;6.878;2023-04-01T09:19:00;13.90;;;9.33;;
15082;SDS011;7640;53.116;6.878;2023-04-01T09:21:58;12.90;;;8.90;;
15082;SDS011;7640;53.116;6.878;2023-04-01T09:25:22;11.73;;;8.47;;
15082;SDS011;7640;53.116;6.878;2023-04-01T09:28:09;11.03;;;7.97;;
15082;SDS011;7640;53.116;6.878;2023-04-01T09:34:11;6.93;;;5.70;;
15082;SDS011;7640;53.116;6.878;2023-04-01T09:40:11;5.70;;;4.90;;
15082;SDS011;7640;53.116;6.878;2023-04-01T09:42:47;4.50;;;4.07;;
15082;SDS011;7640;53.116;6.878;2023-04-01T09:51:58;6.50;;;4.80;;
15082;SDS011;7640;53.116;6.878;2023-04-01T09:54:45;5.50;;;4.40;;
15082;SDS011;7640;53.116;6.878;2023-04-01T10:00:46;5.07;;;3.97;;
15082;SDS011;7640;53.116;6.878;2023-04-01T10:03:35;5.67;;;4.00;;
15082;SDS011;7640;53.116;6.878;2023-04-01T10:17:08;3.87;;;3.50;;
15082;SDS011;7640;53.116;6.878;2023-04-01T10:27:05;3.43;;;3.13;;
15082;SDS011;7640;53.116;6.878;2023-04-01T10:30:01;3.93;;;3.27;;
15082;SDS011;7640;53.116;6.878;2023-04-01T10:52:15;4.13;;;3.10;;
15082;SDS011;7640;53.116;6.878;2023-04-01T10:55:19;3.00;;;2.70;;
15082;SDS011;7640;53.116;6.878;2023-04-01T10:58:10;3.40;;;3.10;;
15082;SDS011;7640;53.116;6.878;2023-04-01T11:01:44;3.40;;;2.60;;
15082;SDS011;7640;53.116;6.878;2023-04-01T11:15:03;3.20;;;2.80;;
15082;SDS011;7640;53.116;6.878;2023-04-01T11:18:09;3.17;;;2.53;;
15082;SDS011;7640;53.116;6.878;2023-04-01T11:21:46;2.97;;;2.50;;
15082;SDS011;7640;53.116;6.878;2023-04-01T11:28:10;3.27;;;2.97;;
15082;SDS011;7640;53.116;6.878;2023-04-01T11:31:05;2.97;;;2.60;;
15082;SDS011;7640;53.116;6.878;2023-04-01T11:34:04;3.30;;;3.00;;
15082;SDS011;7640;53.116;6.878;2023-04-01T11:36:51;5.83;;;3.63;;
15082;SDS011;7640;53.116;6.878;2023-04-01T11:39:33;3.70;;;3.40;;
15082;SDS011;7640;53.116;6.878;2023-04-01T11:42:14;3.67;;;3.37;;
15082;SDS011;7640;53.116;6.878;2023-04-01T11:44:55;3.77;;;3.47;;
15082;SDS011;7640;53.116;6.878;2023-04-01T11:47:41;3.77;;;3.47;;
15082;SDS011;7640;53.116;6.878;2023-04-01T11:54:22;3.80;;;3.13;;
15082;SDS011;7640;53.116;6.878;2023-04-01T11:57:06;4.20;;;3.20;;
15082;SDS011;7640;53.116;6.878;2023-04-01T12:00:01;3.17;;;2.97;;
15082;SDS011;7640;53.116;6.878;2023-04-01T12:02:48;4.00;;;3.60;;
15082;SDS011;7640;53.116;6.878;2023-04-01T12:05:37;2.87;;;2.67;;
15082;SDS011;7640;53.116;6.878;2023-04-01T12:08:13;2.50;;;2.30;;
15082;SDS011;7640;53.116;6.878;2023-04-01T12:10:57;4.03;;;2.13;;
15082;SDS011;7640;53.116;6.878;2023-04-01T12:13:38;3.20;;;2.50;;
15082;SDS011;7640;53.116;6.878;2023-04-01T12:16:28;2.97;;;2.77;;
15082;SDS011;7640;53.116;6.878;2023-04-01T12:19:17;2.97;;;2.77;;
15082;SDS011;7640;53.116;6.878;2023-04-01T12:22:17;3.50;;;3.20;;
15082;SDS011;7640;53.116;6.878;2023-04-01T12:25:06;3.43;;;3.13;;
15082;SDS011;7640;53.116;6.878;2023-04-01T12:27:53;3.90;;;3.60;;
15082;SDS011;7640;53.116;6.878;2023-04-01T12:30:44;3.70;;;3.40;;
15082;SDS011;7640;53.116;6.878;2023-04-01T12:33:28;3.30;;;3.00;;
15082;SDS011;7640;53.116;6.878;2023-04-01T12:36:25;3.50;;;3.20;;
15082;SDS011;7640;53.116;6.878;2023-04-01T12:39:16;3.90;;;3.60;;
15082;SDS011;7640;53.116;6.878;2023-04-01T12:42:20;3.70;;;3.40;;
15082;SDS011;7640;53.116;6.878;2023-04-01T12:45:11;4.30;;;3.80;;
15082;SDS011;7640;53.116;6.878;2023-04-01T12:51:09;3.50;;;3.20;;
15082;SDS011;7640;53.116;6.878;2023-04-01T12:54:04;3.80;;;3.40;;
15082;SDS011;7640;53.116;6.878;2023-04-01T12:57:04;3.50;;;3.20;;
15082;SDS011;7640;53.116;6.878;2023-04-01T12:59:53;3.30;;;3.00;;
15082;SDS011;7640;53.116;6.878;2023-04-01T13:02:40;2.97;;;2.77;;
15082;SDS011;7640;53.116;6.878;2023-04-01T13:05:33;3.80;;;3.00;;
15082;SDS011;7640;53.116;6.878;2023-04-01T13:08:27;2.80;;;2.60;;
15082;SDS011;7640;53.116;6.878;2023-04-01T13:11:08;3.23;;;2.90;;
15082;SDS011;7640;53.116;6.878;2023-04-01T13:13:48;2.67;;;2.47;;
15082;SDS011;7640;53.116;6.878;2023-04-01T13:17:07;3.00;;;2.70;;
15082;SDS011;7640;53.116;6.878;2023-04-01T13:19:44;3.00;;;2.80;;
15082;SDS011;7640;53.116;6.878;2023-04-01T13:22:41;3.20;;;2.90;;
15082;SDS011;7640;53.116;6.878;2023-04-01T13:25:27;3.13;;;2.87;;
15082;SDS011;7640;53.116;6.878;2023-04-01T13:28:06;3.60;;;3.20;;
15082;SDS011;7640;53.116;6.878;2023-04-01T13:30:44;3.20;;;3.00;;
15082;SDS011;7640;53.116;6.878;2023-04-01T13:33:26;2.90;;;2.70;;
15082;SDS011;7640;53.116;6.878;2023-04-01T13:36:08;3.37;;;2.87;;
15082;SDS011;7640;53.116;6.878;2023-04-01T13:38:58;3.20;;;3.00;;
15082;SDS011;7640;53.116;6.878;2023-04-01T13:41:55;3.50;;;3.03;;
15082;SDS011;7640;53.116;6.878;2023-04-01T13:44:41;2.90;;;2.70;;
15082;SDS011;7640;53.116;6.878;2023-04-01T13:57:17;2.63;;;2.43;;
15082;SDS011;7640;53.116;6.878;2023-04-01T14:06:06;2.90;;;2.70;;
15082;SDS011;7640;53.116;6.878;2023-04-01T14:11:59;3.20;;;2.90;;
15082;SDS011;7640;53.116;6.878;2023-04-01T14:14:36;2.87;;;2.67;;
15082;SDS011;7640;53.116;6.878;2023-04-01T14:17:28;2.67;;;2.40;;
15082;SDS011;7640;53.116;6.878;2023-04-01T14:20:20;2.70;;;2.50;;
15082;SDS011;7640;53.116;6.878;2023-04-01T14:23:00;3.37;;;3.07;;
15082;SDS011;7640;53.116;6.878;2023-04-01T14:29:02;4.00;;;3.00;;
15082;SDS011;7640;53.116;6.878;2023-04-01T14:31:55;4.13;;;3.83;;
15082;SDS011;7640;53.116;6.878;2023-04-01T14:34:35;4.23;;;3.87;;
15082;SDS011;7640;53.116;6.878;2023-04-01T14:37:40;4.50;;;4.10;;
15082;SDS011;7640;53.116;6.878;2023-04-01T14:40:37;4.50;;;4.10;;
15082;SDS011;7640;53.116;6.878;2023-04-01T14:49:39;3.40;;;3.20;;
15082;SDS011;7640;53.116;6.878;2023-04-01T14:52:11;3.67;;;3.37;;
15082;SDS011;7640;53.116;6.878;2023-04-01T14:54:46;3.30;;;3.10;;
15082;SDS011;7640;53.116;6.878;2023-04-01T14:57:20;3.60;;;3.30;;
15082;SDS011;7640;53.116;6.878;2023-04-01T14:59:59;3.60;;;3.30;;
15082;SDS011;7640;53.116;6.878;2023-04-01T15:02:41;3.23;;;3.03;;
15082;SDS011;7640;53.116;6.878;2023-04-01T15:05:30;3.43;;;3.13;;
15082;SDS011;7640;53.116;6.878;2023-04-01T15:08:14;3.80;;;3.37;;
15082;SDS011;7640;53.116;6.878;2023-04-01T15:11:04;3.70;;;3.40;;
15082;SDS011;7640;53.116;6.878;2023-04-01T15:20:25;4.40;;;4.00;;
15082;SDS011;7640;53.116;6.878;2023-04-01T15:23:17;4.37;;;3.87;;
15082;SDS011;7640;53.116;6.878;2023-04-01T15:26:22;4.57;;;4.07;;
15082;SDS011;7640;53.116;6.878;2023-04-01T15:29:21;5.50;;;4.83;;
15082;SDS011;7640;53.116;6.878;2023-04-01T15:32:08;6.10;;;5.13;;
15082;SDS011;7640;53.116;6.878;2023-04-01T15:34:48;5.60;;;5.00;;
15082;SDS011;7640;53.116;6.878;2023-04-01T15:37:29;5.87;;;5.30;;
15082;SDS011;7640;53.116;6.878;2023-04-01T15:40:07;5.60;;;4.97;;
15082;SDS011;7640;53.116;6.878;2023-04-01T15:42:51;5.43;;;4.73;;
15082;SDS011;7640;53.116;6.878;2023-04-01T15:45:35;6.23;;;4.80;;
15082;SDS011;7640;53.116;6.878;2023-04-01T15:51:13;6.87;;;4.90;;
15082;SDS011;7640;53.116;6.878;2023-04-01T15:57:48;7.10;;;5.80;;
15082;SDS011;7640;53.116;6.878;2023-04-01T16:00:30;7.83;;;5.93;;
15082;SDS011;7640;53.116;6.878;2023-04-01T16:03:10;8.30;;;5.57;;
15082;SDS011;7640;53.116;6.878;2023-04-01T16:06:01;5.90;;;5.30;;
15082;SDS011;7640;53.116;6.878;2023-04-01T16:09:08;8.27;;;6.00;;
15082;SDS011;7640;53.116;6.878;2023-04-01T16:11:54;6.10;;;5.30;;
15082;SDS011;7640;53.116;6.878;2023-04-01T16:14:35;6.63;;;5.33;;
15082;SDS011;7640;53.116;6.878;2023-04-01T16:17:17;6.93;;;5.43;;
15082;SDS011;7640;53.116;6.878;2023-04-01T16:20:14;7.43;;;5.83;;
15082;SDS011;7640;53.116;6.878;2023-04-01T16:22:52;7.40;;;5.77;;
15082;SDS011;7640;53.116;6.878;2023-04-01T16:25:31;8.00;;;6.00;;
15082;SDS011;7640;53.116;6.878;2023-04-01T16:28:12;6.37;;;4.87;;
15082;SDS011;7640;53.116;6.878;2023-04-01T16:30:48;8.33;;;5.73;;
15082;SDS011;7640;53.116;6.878;2023-04-01T16:33:30;6.20;;;5.60;;
15082;SDS011;7640;53.116;6.878;2023-04-01T16:36:11;8.00;;;6.40;;
15082;SDS011;7640;53.116;6.878;2023-04-01T16:39:06;6.67;;;5.73;;
15082;SDS011;7640;53.116;6.878;2023-04-01T16:41:48;7.67;;;6.63;;
15082;SDS011;7640;53.116;6.878;2023-04-01T16:44:23;6.83;;;5.83;;
15082;SDS011;7640;53.116;6.878;2023-04-01T16:46:54;8.93;;;6.30;;
15082;SDS011;7640;53.116;6.878;2023-04-01T16:49:28;9.30;;;6.87;;
15082;SDS011;7640;53.116;6.878;2023-04-01T16:52:13;6.73;;;5.50;;
15082;SDS011;7640;53.116;6.878;2023-04-01T16:54:50;7.87;;;6.40;;
15082;SDS011;7640;53.116;6.878;2023-04-01T16:57:26;8.93;;;6.43;;
15082;SDS011;7640;53.116;6.878;2023-04-01T17:00:15;9.57;;;6.60;;
15082;SDS011;7640;53.116;6.878;2023-04-01T17:02:52;8.77;;;6.93;;
15082;SDS011;7640;53.116;6.878;2023-04-01T17:05:40;10.83;;;7.30;;
15082;SDS011;7640;53.116;6.878;2023-04-01T17:11:31;9.07;;;7.10;;
15082;SDS011;7640;53.116;6.878;2023-04-01T17:14:13;10.43;;;6.60;;
15082;SDS011;7640;53.116;6.878;2023-04-01T17:16:57;9.80;;;7.20;;
15082;SDS011;7640;53.116;6.878;2023-04-01T17:19:47;12.60;;;7.20;;
15082;SDS011;7640;53.116;6.878;2023-04-01T17:22:31;10.27;;;7.37;;
15082;SDS011;7640;53.116;6.878;2023-04-01T17:25:13;8.50;;;6.87;;
15082;SDS011;7640;53.116;6.878;2023-04-01T17:27:57;8.70;;;7.60;;
15082;SDS011;7640;53.116;6.878;2023-04-01T17:30:33;9.67;;;7.00;;
15082;SDS011;7640;53.116;6.878;2023-04-01T17:33:17;8.87;;;7.20;;
15082;SDS011;7640;53.116;6.878;2023-04-01T17:36:12;11.30;;;7.17;;
15082;SDS011;7640;53.116;6.878;2023-04-01T17:39:01;8.50;;;6.80;;
15082;SDS011;7640;53.116;6.878;2023-04-01T17:41:48;10.63;;;7.73;;
15082;SDS011;7640;53.116;6.878;2023-04-01T17:44:37;9.97;;;7.97;;
15082;SDS011;7640;53.116;6.878;2023-04-01T17:47:27;10.33;;;8.17;;
15082;SDS011;7640;53.116;6.878;2023-04-01T17:50:09;11.23;;;8.07;;
15082;SDS011;7640;53.116;6.878;2023-04-01T17:52:56;9.50;;;8.07;;
15082;SDS011;7640;53.116;6.878;2023-04-01T17:58:45;11.53;;;7.50;;
15082;SDS011;7640;53.116;6.878;2023-04-01T18:01:25;9.87;;;7.33;;
15082;SDS011;7640;53.116;6.878;2023-04-01T18:07:23;12.03;;;8.40;;
15082;SDS011;7640;53.116;6.878;2023-04-01T18:10:24;12.50;;;7.87;;
15082;SDS011;7640;53.116;6.878;2023-04-01T18:13:13;10.03;;;7.60;;
15082;SDS011;7640;53.116;6.878;2023-04-01T18:16:06;10.63;;;7.13;;
15082;SDS011;7640;53.116;6.878;2023-04-01T18:18:54;12.30;;;8.13;;
15082;SDS011;7640;53.116;6.878;2023-04-01T18:21:33;10.23;;;7.47;;
15082;SDS011;7640;53.116;6.878;2023-04-01T18:24:21;8.83;;;7.20;;
15082;SDS011;7640;53.116;6.878;2023-04-01T18:27:01;14.60;;;8.13;;
15082;SDS011;7640;53.116;6.878;2023-04-01T18:29:34;11.70;;;7.23;;
15082;SDS011;7640;53.116;6.878;2023-04-01T18:32:12;11.43;;;7.47;;